createdAt,value
2022-08-31T00:00:32.541Z,99.70
2022-08-31T00:03:18.739Z,99.80
2022-08-31T00:05:47.445Z,99.90
2022-08-31T00:08:16.247Z,99.80
2022-08-31T00:10:46.498Z,99.90
2022-08-31T00:13:16.263Z,99.90
2022-08-31T00:15:47.532Z,99.90
2022-08-31T00:18:15.778Z,99.90
2022-08-31T00:20:44.958Z,99.90
2022-08-31T00:23:19.333Z,99.90
2022-08-31T00:25:49.366Z,99.90
2022-08-31T00:28:18.531Z,99.90
2022-08-31T00:30:48.574Z,99.90
2022-08-31T00:33:17.625Z,99.90
2022-08-31T00:35:46.297Z,99.90
2022-08-31T00:38:15.613Z,99.90
2022-08-31T00:40:46.881Z,99.90
2022-08-31T00:43:34.792Z,99.90
2022-08-31T00:46:05.024Z,99.90
2022-08-31T00:48:33.232Z,99.90
2022-08-31T00:51:02.158Z,99.90
2022-08-31T00:53:30.453Z,99.90
2022-08-31T00:55:59.624Z,99.90
2022-08-31T00:58:28.018Z,99.90
2022-08-31T01:00:56.470Z,99.90
2022-08-31T01:03:26.373Z,99.90
2022-08-31T01:05:54.901Z,99.90
2022-08-31T01:08:29.602Z,99.90
2022-08-31T01:11:00.559Z,99.90
2022-08-31T01:13:30.881Z,99.90
2022-08-31T01:16:04.037Z,99.90
2022-08-31T01:18:35.109Z,99.90
2022-08-31T01:21:13.838Z,99.90
2022-08-31T01:23:45.331Z,99.90
2022-08-31T01:26:18.808Z,99.90
2022-08-31T01:28:48.841Z,99.90
2022-08-31T01:31:23.238Z,99.90
2022-08-31T01:33:51.863Z,99.90
2022-08-31T01:36:21.775Z,99.90
2022-08-31T01:38:53.086Z,99.90
2022-08-31T01:41:23.777Z,99.90
2022-08-31T01:43:53.014Z,99.90
2022-08-31T01:46:22.125Z,99.90
2022-08-31T01:48:52.238Z,99.90
2022-08-31T01:51:22.629Z,99.90
2022-08-31T01:53:54.875Z,99.90
2022-08-31T01:56:25.419Z,99.90
2022-08-31T01:58:54.803Z,99.90
2022-08-31T02:01:49.149Z,99.90
2022-08-31T02:04:19.850Z,99.90
2022-08-31T02:06:50.965Z,99.90
2022-08-31T02:09:22.885Z,99.90
2022-08-31T02:11:51.633Z,99.90
2022-08-31T02:14:20.523Z,99.90
2022-08-31T02:16:50.155Z,99.90
2022-08-31T02:19:18.560Z,99.90
2022-08-31T02:21:46.961Z,99.90
2022-08-31T02:24:15.894Z,99.90
2022-08-31T02:26:45.503Z,99.90
2022-08-31T02:29:14.146Z,99.90
2022-08-31T02:31:42.508Z,99.90
2022-08-31T02:34:10.960Z,99.90
2022-08-31T02:36:39.254Z,99.90
2022-08-31T02:39:08.958Z,99.90
2022-08-31T02:41:37.236Z,99.90
2022-08-31T02:44:07.294Z,99.90
2022-08-31T02:46:35.888Z,99.90
2022-08-31T02:49:23.017Z,99.90
2022-08-31T02:51:55.107Z,99.90
2022-08-31T02:54:23.579Z,99.90
2022-08-31T02:56:53.306Z,99.90
2022-08-31T02:59:23.009Z,99.90
2022-08-31T03:01:52.907Z,99.90
2022-08-31T03:04:21.354Z,99.90
2022-08-31T03:06:50.017Z,99.90
2022-08-31T03:09:19.482Z,99.90
2022-08-31T03:11:49.168Z,99.90
2022-08-31T03:14:17.503Z,99.90
2022-08-31T03:16:49.762Z,99.90
2022-08-31T03:19:21.777Z,99.90
2022-08-31T03:21:54.670Z,99.90
2022-08-31T03:24:27.181Z,99.90
2022-08-31T03:26:56.185Z,99.90
2022-08-31T03:29:24.529Z,99.90
2022-08-31T03:31:56.875Z,99.90
2022-08-31T03:34:26.744Z,99.90
2022-08-31T03:36:55.029Z,99.90
2022-08-31T03:39:23.569Z,99.90
2022-08-31T03:41:51.936Z,99.90
2022-08-31T03:44:23.520Z,99.90
2022-08-31T03:46:56.396Z,99.90
2022-08-31T03:49:26.981Z,99.90
2022-08-31T03:52:18.602Z,99.90
2022-08-31T03:54:49.829Z,99.90
2022-08-31T03:57:18.700Z,99.90
2022-08-31T03:59:46.979Z,99.90
2022-08-31T04:02:41.094Z,99.90
2022-08-31T04:05:23.916Z,99.90
2022-08-31T04:08:12.759Z,99.90
2022-08-31T04:11:10.393Z,99.90
2022-08-31T04:13:59.165Z,99.90
2022-08-31T04:16:27.726Z,99.90
2022-08-31T04:19:09.347Z,99.90
2022-08-31T04:21:47.637Z,99.90
2022-08-31T04:26:22.797Z,99.90
2022-08-31T04:28:51.942Z,99.90
2022-08-31T04:31:22.812Z,99.90
2022-08-31T04:33:51.788Z,99.90
2022-08-31T04:36:22.453Z,99.90
2022-08-31T04:38:56.240Z,99.90
2022-08-31T04:41:28.271Z,99.90
2022-08-31T04:43:58.778Z,99.90
2022-08-31T04:46:28.769Z,99.90
2022-08-31T04:48:56.959Z,99.90
2022-08-31T04:51:28.094Z,99.90
2022-08-31T04:53:56.779Z,99.90
2022-08-31T04:56:29.247Z,99.90
2022-08-31T04:58:59.149Z,99.90
2022-08-31T05:01:38.649Z,99.90
2022-08-31T05:04:33.845Z,99.90
2022-08-31T05:07:02.121Z,99.90
2022-08-31T05:09:30.263Z,99.90
2022-08-31T05:11:59.721Z,99.90
2022-08-31T05:14:27.826Z,99.90
2022-08-31T05:17:02.875Z,99.90
2022-08-31T05:19:36.909Z,99.90
2022-08-31T05:22:07.259Z,99.90
2022-08-31T05:24:38.812Z,99.90
2022-08-31T05:27:09.693Z,99.90
2022-08-31T05:29:37.797Z,99.90
2022-08-31T05:32:34.964Z,99.90
2022-08-31T05:35:07.790Z,99.90
2022-08-31T05:37:35.947Z,99.90
2022-08-31T05:40:05.149Z,99.90
2022-08-31T05:42:34.993Z,99.90
2022-08-31T05:45:04.082Z,99.90
2022-08-31T05:47:32.424Z,99.90
2022-08-31T05:50:00.542Z,99.90
2022-08-31T05:52:29.614Z,99.90
2022-08-31T05:54:57.654Z,99.90
2022-08-31T05:57:26.826Z,99.90
2022-08-31T05:59:58.765Z,99.90
2022-08-31T06:02:29.608Z,99.90
2022-08-31T06:04:59.099Z,99.90
2022-08-31T06:07:27.788Z,99.90
2022-08-31T06:09:59.659Z,99.90
2022-08-31T06:12:28.628Z,99.90
2022-08-31T06:14:58.060Z,99.90
2022-08-31T06:17:26.554Z,99.90
2022-08-31T06:19:54.937Z,99.90
2022-08-31T06:22:23.447Z,99.90
2022-08-31T06:24:52.725Z,99.90
2022-08-31T06:27:21.056Z,99.90
2022-08-31T06:29:50.866Z,99.90
2022-08-31T06:32:21.552Z,99.90
2022-08-31T06:34:56.060Z,99.90
2022-08-31T06:37:56.777Z,99.90
2022-08-31T06:40:46.656Z,99.90
2022-08-31T06:43:43.508Z,99.90
2022-08-31T06:46:23.704Z,99.90
2022-08-31T06:49:25.999Z,99.90
2022-08-31T06:51:54.083Z,99.90
2022-08-31T06:54:30.552Z,99.90
2022-08-31T06:57:27.770Z,99.90
2022-08-31T07:00:01.894Z,99.90
2022-08-31T07:02:45.462Z,99.90
2022-08-31T07:05:24.723Z,99.90
2022-08-31T07:07:55.135Z,99.90
2022-08-31T07:10:23.373Z,99.90
2022-08-31T07:12:51.552Z,99.90
2022-08-31T07:15:19.690Z,99.90
2022-08-31T07:17:49.759Z,99.90
2022-08-31T07:20:18.105Z,99.90
2022-08-31T07:22:47.789Z,99.90
2022-08-31T07:25:30.886Z,99.90
2022-08-31T07:27:59.423Z,99.90
2022-08-31T07:30:29.053Z,99.90
2022-08-31T07:33:06.995Z,99.90
2022-08-31T07:35:37.396Z,99.90
2022-08-31T07:38:33.139Z,99.90
2022-08-31T07:41:18.697Z,99.90
2022-08-31T07:43:48.113Z,99.90
2022-08-31T07:46:17.838Z,99.90
2022-08-31T07:48:46.178Z,99.90
2022-08-31T07:51:29.421Z,99.90
2022-08-31T07:54:24.057Z,99.90
2022-08-31T07:57:22.444Z,99.90
2022-08-31T07:59:55.834Z,99.90
2022-08-31T08:02:24.310Z,99.90
2022-08-31T08:04:53.786Z,99.90
2022-08-31T08:07:44.708Z,99.90
2022-08-31T08:10:52.363Z,99.90
2022-08-31T08:13:50.369Z,99.90
2022-08-31T08:16:38.788Z,99.90
2022-08-31T08:19:23.078Z,99.90
2022-08-31T08:21:51.504Z,99.90
2022-08-31T08:24:24.215Z,99.90
2022-08-31T08:27:20.330Z,99.90
2022-08-31T08:29:53.785Z,99.90
2022-08-31T08:32:31.450Z,99.90
2022-08-31T08:34:59.846Z,99.90
2022-08-31T08:37:47.809Z,99.90
2022-08-31T08:40:30.673Z,99.90
2022-08-31T08:43:02.851Z,99.90
2022-08-31T08:45:31.580Z,99.90
2022-08-31T08:48:01.457Z,99.90
2022-08-31T08:50:32.461Z,99.90
2022-08-31T08:53:03.649Z,99.90
2022-08-31T08:55:36.881Z,99.90
2022-08-31T08:58:10.379Z,99.90
2022-08-31T09:00:46.630Z,99.90
2022-08-31T09:03:25.021Z,99.90
2022-08-31T09:06:15.001Z,99.90
2022-08-31T09:09:34.692Z,99.90
2022-08-31T09:12:18.956Z,99.90
2022-08-31T09:15:04.527Z,99.90
2022-08-31T09:17:45.669Z,99.90
2022-08-31T09:20:16.866Z,99.90
2022-08-31T09:22:48.532Z,99.90
2022-08-31T09:25:20.241Z,99.90
2022-08-31T09:28:16.370Z,99.90
2022-08-31T09:30:52.572Z,99.90
2022-08-31T09:33:25.069Z,99.90
2022-08-31T09:35:56.818Z,99.90
2022-08-31T09:38:30.472Z,99.90
2022-08-31T09:40:59.558Z,99.90
2022-08-31T09:43:38.714Z,99.90
2022-08-31T09:46:13.261Z,99.90
2022-08-31T09:48:49.729Z,99.90
2022-08-31T09:51:24.461Z,99.90
2022-08-31T09:54:10.613Z,99.90
2022-08-31T09:56:56.106Z,99.90
2022-08-31T09:59:37.273Z,99.90
2022-08-31T10:02:11.301Z,99.90
2022-08-31T10:04:51.074Z,99.90
2022-08-31T10:07:34.278Z,99.90
2022-08-31T10:10:05.615Z,99.90
2022-08-31T10:12:43.930Z,99.90
2022-08-31T10:15:18.731Z,99.90
2022-08-31T10:17:56.098Z,99.90
2022-08-31T10:20:30.435Z,99.90
2022-08-31T10:23:08.799Z,99.90
2022-08-31T10:25:42.893Z,99.90
2022-08-31T10:28:15.412Z,99.90
2022-08-31T10:30:48.807Z,99.90
2022-08-31T10:33:21.453Z,99.60
2022-08-31T10:35:55.757Z,99.30
2022-08-31T10:38:30.377Z,99.30
2022-08-31T10:41:07.495Z,99.40
2022-08-31T10:43:40.606Z,98.80
2022-08-31T10:46:08.941Z,98.00
2022-08-31T10:48:50.919Z,97.80
2022-08-31T10:51:24.170Z,98.00
2022-08-31T10:54:07.773Z,98.00
2022-08-31T10:56:49.711Z,98.00
2022-08-31T10:59:25.951Z,97.70
2022-08-31T11:02:02.556Z,97.90
2022-08-31T11:04:51.536Z,97.90
2022-08-31T11:07:36.138Z,97.70
2022-08-31T11:10:22.183Z,97.20
2022-08-31T11:12:57.563Z,96.70
2022-08-31T11:15:45.385Z,97.10
2022-08-31T11:18:42.681Z,96.90
2022-08-31T11:21:36.568Z,95.90
2022-08-31T11:24:35.000Z,95.70
2022-08-31T11:27:11.671Z,95.80
2022-08-31T11:29:43.995Z,95.90
2022-08-31T11:32:20.686Z,95.40
2022-08-31T11:34:51.449Z,94.60
2022-08-31T11:37:55.801Z,94.60
2022-08-31T11:41:14.032Z,94.10
2022-08-31T11:43:52.131Z,94.10
2022-08-31T11:46:53.064Z,94.60
2022-08-31T11:49:41.198Z,93.80
2022-08-31T11:52:30.857Z,93.70
2022-08-31T11:55:24.004Z,93.90
2022-08-31T11:58:26.567Z,94.00
2022-08-31T12:00:59.212Z,93.30
2022-08-31T12:03:50.536Z,93.40
2022-08-31T12:07:07.794Z,93.30
2022-08-31T12:10:16.733Z,92.60
2022-08-31T12:13:36.369Z,92.90
2022-08-31T12:16:20.913Z,93.10
2022-08-31T12:18:59.732Z,93.30
2022-08-31T12:21:53.224Z,92.40
2022-08-31T12:24:34.113Z,92.80
2022-08-31T12:27:21.230Z,92.10
2022-08-31T12:29:49.880Z,91.90
2022-08-31T12:32:27.922Z,92.40
2022-08-31T12:35:09.513Z,91.60
2022-08-31T12:37:39.346Z,91.80
2022-08-31T12:40:20.951Z,91.70
2022-08-31T12:42:59.330Z,92.10
2022-08-31T12:46:05.865Z,91.30
2022-08-31T12:48:53.193Z,90.90
2022-08-31T12:51:35.190Z,90.70
2022-08-31T12:54:32.836Z,90.30
2022-08-31T12:57:08.444Z,90.40
2022-08-31T13:00:00.573Z,90.40
2022-08-31T13:02:33.029Z,89.40
2022-08-31T13:05:02.992Z,88.40
2022-08-31T13:07:33.435Z,88.40
2022-08-31T13:10:10.025Z,86.60
2022-08-31T13:12:38.729Z,85.60
2022-08-31T13:15:14.326Z,87.30
2022-08-31T13:17:42.769Z,85.40
2022-08-31T13:20:13.470Z,84.40
2022-08-31T13:22:42.771Z,84.60
2022-08-31T13:25:16.702Z,83.70
2022-08-31T13:27:50.058Z,82.60
2022-08-31T13:30:25.537Z,81.30
2022-08-31T13:32:54.804Z,82.00
2022-08-31T13:35:26.676Z,82.60
2022-08-31T13:38:03.813Z,80.90
2022-08-31T13:40:35.475Z,80.40
2022-08-31T13:43:05.424Z,78.80
2022-08-31T13:45:37.674Z,80.60
2022-08-31T13:48:10.726Z,79.10
2022-08-31T13:50:52.628Z,76.70
2022-08-31T13:53:42.412Z,77.70
2022-08-31T13:56:43.856Z,79.00
2022-08-31T13:59:34.746Z,79.50
2022-08-31T14:02:07.934Z,79.50
2022-08-31T14:05:00.455Z,80.00
2022-08-31T14:07:32.574Z,80.60
2022-08-31T14:10:03.648Z,80.00
2022-08-31T14:12:39.467Z,79.80
2022-08-31T14:15:35.414Z,80.00
2022-08-31T14:18:25.737Z,80.00
2022-08-31T14:21:22.681Z,81.20
2022-08-31T14:23:53.565Z,80.20
2022-08-31T14:26:26.095Z,81.20
2022-08-31T14:28:56.517Z,80.00
2022-08-31T14:31:27.606Z,80.50
2022-08-31T14:34:22.319Z,79.40
2022-08-31T14:36:54.380Z,78.80
2022-08-31T14:39:24.893Z,78.60
2022-08-31T14:41:54.641Z,78.60
2022-08-31T14:44:26.090Z,78.20
2022-08-31T14:46:54.408Z,77.10
2022-08-31T14:49:24.803Z,76.80
2022-08-31T14:51:52.862Z,76.60
2022-08-31T14:54:20.906Z,75.10
2022-08-31T14:56:51.948Z,76.40
2022-08-31T14:59:21.759Z,77.00
2022-08-31T15:01:50.851Z,77.00
2022-08-31T15:04:21.787Z,77.20
2022-08-31T15:06:54.996Z,76.70
2022-08-31T15:09:23.259Z,76.60
2022-08-31T15:11:51.433Z,76.30
2022-08-31T15:14:19.517Z,76.70
2022-08-31T15:16:50.791Z,76.40
2022-08-31T15:19:19.060Z,77.10
2022-08-31T15:21:52.781Z,77.60
2022-08-31T15:24:32.171Z,77.00
2022-08-31T15:27:02.164Z,76.00
2022-08-31T15:29:30.890Z,76.90
2022-08-31T15:31:59.850Z,77.20
2022-08-31T15:34:31.033Z,77.20
2022-08-31T15:37:02.389Z,75.30
2022-08-31T15:39:35.602Z,74.30
2022-08-31T15:42:09.038Z,75.80
2022-08-31T15:44:37.567Z,74.70
2022-08-31T15:47:24.977Z,75.80
2022-08-31T15:49:53.243Z,75.30
2022-08-31T15:52:21.543Z,75.90
2022-08-31T15:54:51.715Z,75.60
2022-08-31T15:57:21.209Z,75.70
2022-08-31T15:59:50.065Z,76.00
2022-08-31T16:02:20.461Z,75.80
2022-08-31T16:04:50.605Z,76.30
2022-08-31T16:07:22.631Z,77.10
2022-08-31T16:09:52.074Z,77.50
2022-08-31T16:12:21.201Z,77.70
2022-08-31T16:14:51.338Z,77.40
2022-08-31T16:17:20.068Z,77.70
2022-08-31T16:19:48.881Z,78.00
2022-08-31T16:22:17.937Z,78.20
2022-08-31T16:24:51.003Z,78.50
2022-08-31T16:27:22.144Z,78.10
2022-08-31T16:29:51.727Z,78.60
2022-08-31T16:32:20.542Z,78.70
2022-08-31T16:34:49.093Z,78.80
2022-08-31T16:37:17.230Z,79.20
2022-08-31T16:39:47.775Z,79.10
2022-08-31T16:42:17.584Z,79.50
2022-08-31T16:44:48.541Z,79.40
2022-08-31T16:47:18.657Z,79.10
2022-08-31T16:49:46.838Z,79.00
2022-08-31T16:52:18.158Z,78.70
2022-08-31T16:54:49.082Z,78.90
2022-08-31T16:57:18.903Z,79.20
2022-08-31T16:59:49.382Z,79.40
2022-08-31T17:02:18.966Z,79.70
2022-08-31T17:04:52.454Z,79.60
2022-08-31T17:07:23.294Z,80.00
2022-08-31T17:09:52.392Z,80.70
2022-08-31T17:12:26.088Z,81.20
2022-08-31T17:14:55.957Z,81.70
2022-08-31T17:17:26.529Z,82.50
2022-08-31T17:19:56.966Z,81.70
2022-08-31T17:22:32.428Z,82.20
2022-08-31T17:25:04.695Z,83.00
2022-08-31T17:27:34.628Z,84.20
2022-08-31T17:30:07.888Z,85.00
2022-08-31T17:32:39.396Z,85.10
2022-08-31T17:35:17.470Z,85.50
2022-08-31T17:37:45.854Z,85.60
2022-08-31T17:40:16.695Z,86.00
2022-08-31T17:42:45.451Z,86.10
2022-08-31T17:45:15.598Z,86.50
2022-08-31T17:47:43.854Z,86.60
2022-08-31T17:50:13.983Z,87.20
2022-08-31T17:52:42.170Z,87.10
2022-08-31T17:55:10.548Z,87.40
2022-08-31T17:57:39.695Z,87.80
2022-08-31T18:00:08.949Z,88.40
2022-08-31T18:02:39.057Z,88.90
2022-08-31T18:05:11.777Z,90.00
2022-08-31T18:07:41.229Z,90.40
2022-08-31T18:10:10.813Z,90.80
2022-08-31T18:12:41.204Z,90.90
2022-08-31T18:15:11.127Z,91.40
2022-08-31T18:17:40.890Z,91.90
2022-08-31T18:20:11.842Z,92.50
2022-08-31T18:22:40.239Z,92.80
2022-08-31T18:25:08.989Z,93.20
2022-08-31T18:27:37.086Z,93.40
2022-08-31T18:30:06.264Z,93.90
2022-08-31T18:32:36.315Z,94.10
2022-08-31T18:35:17.594Z,94.30
2022-08-31T18:37:45.893Z,94.50
2022-08-31T18:40:31.731Z,94.90
2022-08-31T18:43:32.061Z,95.10
2022-08-31T18:46:00.968Z,95.30
2022-08-31T18:48:29.096Z,95.80
2022-08-31T18:50:59.311Z,96.10
2022-08-31T18:53:30.235Z,96.40
2022-08-31T18:56:05.443Z,96.60
2022-08-31T18:58:34.036Z,97.00
2022-08-31T19:01:02.316Z,97.20
2022-08-31T19:03:30.555Z,97.50
2022-08-31T19:06:00.332Z,97.50
2022-08-31T19:08:29.970Z,97.90
2022-08-31T19:10:58.918Z,98.00
2022-08-31T19:13:31.601Z,98.00
2022-08-31T19:16:10.718Z,98.20
2022-08-31T19:18:44.015Z,98.60
2022-08-31T19:21:19.302Z,98.50
2022-08-31T19:23:48.161Z,99.00
2022-08-31T19:26:22.382Z,99.10
2022-08-31T19:28:50.934Z,99.40
2022-08-31T19:31:20.967Z,99.50
2022-08-31T19:33:56.070Z,99.80
2022-08-31T19:36:27.235Z,99.90
2022-08-31T19:38:56.474Z,99.90
2022-08-31T19:41:26.590Z,99.90
2022-08-31T19:44:07.840Z,99.90
2022-08-31T19:46:37.963Z,99.90
2022-08-31T19:49:10.937Z,99.90
2022-08-31T19:51:43.237Z,99.90
2022-08-31T19:54:12.767Z,99.90
2022-08-31T19:56:43.689Z,99.90
2022-08-31T19:59:18.330Z,99.90
2022-08-31T20:01:48.552Z,99.90
2022-08-31T20:04:19.236Z,99.90
2022-08-31T20:06:52.174Z,99.90
2022-08-31T20:09:23.223Z,99.90
2022-08-31T20:11:52.767Z,99.90
2022-08-31T20:14:22.045Z,99.90
2022-08-31T20:16:51.214Z,99.90
2022-08-31T20:19:24.566Z,99.90
2022-08-31T20:21:55.862Z,99.90
2022-08-31T20:24:28.049Z,99.90
2022-08-31T20:26:59.876Z,99.90
2022-08-31T20:29:28.039Z,99.90
2022-08-31T20:31:56.828Z,99.90
2022-08-31T20:34:27.949Z,99.90
2022-08-31T20:37:01.170Z,99.90
2022-08-31T20:39:31.569Z,99.90
2022-08-31T20:42:01.980Z,99.90
2022-08-31T20:44:33.671Z,99.90
2022-08-31T20:47:20.465Z,99.90
2022-08-31T20:49:54.539Z,99.90
2022-08-31T20:52:28.111Z,99.90
2022-08-31T20:55:02.179Z,99.90
2022-08-31T20:57:31.673Z,99.90
2022-08-31T21:00:02.437Z,99.90
2022-08-31T21:02:31.692Z,99.90
2022-08-31T21:05:15.183Z,99.90
2022-08-31T21:07:49.873Z,99.90
2022-08-31T21:10:19.017Z,99.90
2022-08-31T21:12:49.655Z,99.90
2022-08-31T21:15:22.360Z,99.90
2022-08-31T21:17:56.996Z,99.90
2022-08-31T21:20:26.316Z,99.90
2022-08-31T21:22:55.759Z,99.90
2022-08-31T21:25:23.838Z,99.90
2022-08-31T21:27:52.850Z,99.90
2022-08-31T21:30:21.145Z,99.90
2022-08-31T21:32:49.373Z,99.90
2022-08-31T21:35:19.242Z,99.90
2022-08-31T21:37:47.636Z,99.90
2022-08-31T21:40:18.310Z,99.90
2022-08-31T21:42:46.472Z,99.90
2022-08-31T21:45:14.719Z,99.90
2022-08-31T21:47:43.300Z,99.90
2022-08-31T21:50:11.616Z,99.90
2022-08-31T21:52:40.042Z,99.90
2022-08-31T21:55:13.472Z,99.90
2022-08-31T21:57:43.646Z,99.90
2022-08-31T22:00:22.191Z,99.90
2022-08-31T22:02:50.794Z,99.90
2022-08-31T22:05:19.093Z,99.90
2022-08-31T22:07:47.164Z,99.90
2022-08-31T22:10:15.196Z,99.90
2022-08-31T22:12:44.613Z,99.90
2022-08-31T22:15:16.634Z,99.90
2022-08-31T22:18:04.757Z,99.90
2022-08-31T22:20:33.805Z,99.90
2022-08-31T22:23:02.775Z,99.90
2022-08-31T22:25:33.420Z,99.90
2022-08-31T22:28:05.945Z,99.90
2022-08-31T22:30:37.074Z,99.90
2022-08-31T22:33:05.882Z,99.90
2022-08-31T22:35:39.823Z,99.90
2022-08-31T22:38:09.135Z,99.90
2022-08-31T22:40:39.425Z,99.90
2022-08-31T22:43:09.330Z,99.90
2022-08-31T22:45:47.611Z,99.90
2022-08-31T22:48:17.321Z,99.90
2022-08-31T22:50:45.429Z,99.90
2022-08-31T22:53:14.246Z,99.90
2022-08-31T22:55:43.003Z,99.90
2022-08-31T22:58:13.649Z,99.90
2022-08-31T23:00:45.366Z,99.90
2022-08-31T23:03:14.812Z,99.90
2022-08-31T23:05:43.617Z,99.90
2022-08-31T23:08:12.373Z,99.90
2022-08-31T23:10:40.606Z,99.90
2022-08-31T23:13:08.921Z,99.90
2022-08-31T23:15:40.036Z,99.90
2022-08-31T23:18:10.318Z,99.90
2022-08-31T23:20:41.561Z,99.90
2022-08-31T23:23:10.044Z,99.90
2022-08-31T23:25:41.754Z,99.90
2022-08-31T23:28:09.858Z,99.90
2022-08-31T23:30:43.715Z,99.90
2022-08-31T23:33:11.781Z,99.90
2022-08-31T23:35:40.592Z,99.90
2022-08-31T23:38:08.626Z,99.90
2022-08-31T23:40:36.713Z,99.90
2022-08-31T23:43:07.977Z,99.90
2022-08-31T23:45:40.850Z,99.90
2022-08-31T23:48:09.425Z,99.90
2022-08-31T23:50:37.553Z,99.90
2022-08-31T23:53:13.565Z,99.90
2022-08-31T23:55:44.177Z,99.90
2022-08-31T23:58:14.001Z,99.90
